createdAt,value
2018-05-05T00:01:28.209Z,14.29
2018-05-05T00:03:55.789Z,14.23
2018-05-05T00:06:23.604Z,14.26
2018-05-05T00:08:51.185Z,14.16
2018-05-05T00:11:18.777Z,14.12
2018-05-05T00:13:46.585Z,14.09
2018-05-05T00:16:14.163Z,14.07
2018-05-05T00:18:41.755Z,14.00
2018-05-05T00:21:09.573Z,14.05
2018-05-05T00:23:37.161Z,14.00
2018-05-05T00:26:04.750Z,13.99
2018-05-05T00:28:32.367Z,14.01
2018-05-05T00:31:00.026Z,14.07
2018-05-05T00:33:27.610Z,13.99
2018-05-05T00:35:55.356Z,13.98
2018-05-05T00:38:23.003Z,13.92
2018-05-05T00:40:50.668Z,13.83
2018-05-05T00:43:18.304Z,13.76
2018-05-05T00:45:46.005Z,13.77
2018-05-05T00:48:13.657Z,13.73
2018-05-05T00:50:41.270Z,13.71
2018-05-05T00:53:08.991Z,13.69
2018-05-05T00:55:36.712Z,13.76
2018-05-05T00:58:04.344Z,13.68
2018-05-05T01:00:31.948Z,13.66
2018-05-05T01:02:59.624Z,13.60
2018-05-05T01:05:27.356Z,13.53
2018-05-05T01:07:54.945Z,13.49
2018-05-05T01:10:22.532Z,13.45
2018-05-05T01:12:50.256Z,13.38
2018-05-05T01:15:17.932Z,13.39
2018-05-05T01:17:45.512Z,13.36
2018-05-05T01:20:13.263Z,13.30
2018-05-05T01:22:41.129Z,13.31
2018-05-05T01:25:08.761Z,13.26
2018-05-05T01:27:36.379Z,13.21
2018-05-05T01:30:03.981Z,13.15
2018-05-05T01:32:31.555Z,13.20
2018-05-05T01:34:59.187Z,13.22
2018-05-05T01:37:26.903Z,13.32
2018-05-05T01:39:54.497Z,13.47
2018-05-05T01:42:22.439Z,13.52
2018-05-05T01:44:50.097Z,13.56
2018-05-05T01:47:17.674Z,13.54
2018-05-05T01:49:45.287Z,13.51
2018-05-05T01:52:12.853Z,13.51
2018-05-05T01:54:40.443Z,13.49
2018-05-05T01:57:08.063Z,13.51
2018-05-05T01:59:35.654Z,13.60
2018-05-05T02:02:03.326Z,13.64
2018-05-05T02:04:30.950Z,13.69
2018-05-05T02:06:58.827Z,13.69
2018-05-05T02:09:26.504Z,13.59
2018-05-05T02:11:54.138Z,13.54
2018-05-05T02:14:21.743Z,13.51
2018-05-05T02:16:49.496Z,13.43
2018-05-05T02:19:17.140Z,13.49
2018-05-05T02:21:44.707Z,13.35
2018-05-05T02:24:12.493Z,13.26
2018-05-05T02:26:40.160Z,13.28
2018-05-05T02:29:07.795Z,13.21
2018-05-05T02:31:35.400Z,13.15
2018-05-05T02:34:03.142Z,13.04
2018-05-05T02:36:30.803Z,13.00
2018-05-05T02:38:58.383Z,12.95
2018-05-05T02:41:26.002Z,12.90
2018-05-05T02:43:53.783Z,12.82
2018-05-05T02:46:21.402Z,12.81
2018-05-05T02:48:49.118Z,12.84
2018-05-05T02:51:16.781Z,12.80
2018-05-05T02:53:44.498Z,12.79
2018-05-05T02:56:12.297Z,12.79
2018-05-05T02:58:39.888Z,12.84
2018-05-05T03:01:07.619Z,12.86
2018-05-05T03:03:35.367Z,12.78
2018-05-05T03:06:03.145Z,12.79
2018-05-05T03:08:30.735Z,12.78
2018-05-05T03:10:58.489Z,12.81
2018-05-05T03:13:26.142Z,12.85
2018-05-05T03:15:53.722Z,12.85
2018-05-05T03:18:21.339Z,12.81
2018-05-05T03:20:48.906Z,12.74
2018-05-05T03:23:17.408Z,12.59
2018-05-05T03:25:45.055Z,12.73
2018-05-05T03:28:12.734Z,12.79
2018-05-05T03:30:40.316Z,12.99
2018-05-05T03:33:08.168Z,13.15
2018-05-05T03:35:35.735Z,13.30
2018-05-05T03:38:03.419Z,13.47
2018-05-05T03:40:31.019Z,13.67
2018-05-05T03:42:58.707Z,13.75
2018-05-05T03:45:26.285Z,13.85
2018-05-05T03:47:54.016Z,14.26
2018-05-05T03:50:21.590Z,15.33
2018-05-05T03:52:49.167Z,16.24
2018-05-05T03:55:17.013Z,17.14
2018-05-05T03:57:44.592Z,17.96
2018-05-05T04:00:23.999Z,18.80
2018-05-05T04:05:52.723Z,20.40
2018-05-05T04:08:20.287Z,20.47
2018-05-05T04:10:47.863Z,20.94
2018-05-05T04:13:15.489Z,21.25
2018-05-05T04:15:43.365Z,21.79
2018-05-05T04:18:10.948Z,22.16
2018-05-05T04:20:38.683Z,22.67
2018-05-05T04:23:06.259Z,22.84
2018-05-05T04:25:33.835Z,23.39
2018-05-05T04:28:01.482Z,23.56
2018-05-05T04:30:29.125Z,24.21
2018-05-05T04:32:56.803Z,24.37
2018-05-05T04:35:24.455Z,24.74
2018-05-05T04:37:52.036Z,25.00
2018-05-05T04:40:19.612Z,25.67
2018-05-05T04:42:47.268Z,25.90
2018-05-05T04:45:14.967Z,26.49
2018-05-05T04:47:42.542Z,26.81
2018-05-05T04:50:10.159Z,26.08
2018-05-05T04:52:37.756Z,26.87
2018-05-05T04:55:05.331Z,26.83
2018-05-05T04:57:32.965Z,27.03
2018-05-05T05:00:00.532Z,27.81
2018-05-05T05:02:28.105Z,29.01
2018-05-05T05:04:55.738Z,28.39
2018-05-05T05:07:23.309Z,29.08
2018-05-05T05:09:50.896Z,29.51
2018-05-05T05:12:18.492Z,29.82
2018-05-05T05:14:46.072Z,29.96
2018-05-05T05:17:13.636Z,30.73
2018-05-05T05:19:41.250Z,30.61
2018-05-05T05:22:08.825Z,30.05
2018-05-05T05:24:36.430Z,29.29
2018-05-05T05:27:04.047Z,30.02
2018-05-05T05:29:31.625Z,30.77
2018-05-05T05:31:59.203Z,29.84
2018-05-05T05:34:26.807Z,29.02
2018-05-05T05:36:54.372Z,30.09
2018-05-05T05:39:21.956Z,29.92
2018-05-05T05:41:49.602Z,30.85
2018-05-05T05:44:17.171Z,30.58
2018-05-05T05:46:44.783Z,30.51
2018-05-05T05:49:12.388Z,31.57
2018-05-05T05:51:39.961Z,32.34
2018-05-05T05:54:07.552Z,32.68
2018-05-05T05:56:35.164Z,32.79
2018-05-05T05:59:02.743Z,32.85
2018-05-05T06:01:30.318Z,33.18
2018-05-05T06:03:57.936Z,33.43
2018-05-05T06:06:25.507Z,33.46
2018-05-05T06:08:53.151Z,33.42
2018-05-05T06:11:20.870Z,33.61
2018-05-05T06:13:48.457Z,33.31
2018-05-05T06:16:16.017Z,33.71
2018-05-05T06:18:43.619Z,33.81
2018-05-05T06:21:11.195Z,33.44
2018-05-05T06:23:38.761Z,33.26
2018-05-05T06:26:06.415Z,32.68
2018-05-05T06:28:33.984Z,32.42
2018-05-05T06:31:01.552Z,33.47
2018-05-05T06:33:29.170Z,33.81
2018-05-05T06:35:56.985Z,34.17
2018-05-05T06:38:24.576Z,33.86
2018-05-05T06:40:52.245Z,34.49
2018-05-05T06:43:19.835Z,34.09
2018-05-05T06:45:47.448Z,34.30
2018-05-05T06:48:15.091Z,34.04
2018-05-05T06:50:42.679Z,34.12
2018-05-05T06:53:10.309Z,35.02
2018-05-05T06:55:37.945Z,35.93
2018-05-05T06:58:05.560Z,36.27
2018-05-05T07:00:33.152Z,36.25
2018-05-05T07:03:00.824Z,35.46
2018-05-05T07:05:28.433Z,35.87
2018-05-05T07:07:56.051Z,35.75
2018-05-05T07:10:23.715Z,36.81
2018-05-05T07:12:51.296Z,37.17
2018-05-05T07:15:18.864Z,37.89
2018-05-05T07:17:46.465Z,37.82
2018-05-05T07:20:14.036Z,37.40
2018-05-05T07:22:41.615Z,36.50
2018-05-05T07:25:09.221Z,37.26
2018-05-05T07:27:36.897Z,37.33
2018-05-05T07:30:04.488Z,36.26
2018-05-05T07:32:32.139Z,36.78
2018-05-05T07:34:59.699Z,36.82
2018-05-05T07:37:27.293Z,38.08
2018-05-05T07:39:54.953Z,37.52
2018-05-05T07:42:22.594Z,36.64
2018-05-05T07:44:50.215Z,37.11
2018-05-05T07:47:17.815Z,37.59
2018-05-05T07:49:45.383Z,37.17
2018-05-05T07:52:12.956Z,36.99
2018-05-05T07:54:40.542Z,36.86
2018-05-05T07:57:08.153Z,36.43
2018-05-05T07:59:35.844Z,37.47
2018-05-05T08:02:03.564Z,37.17
2018-05-05T08:04:31.142Z,36.68
2018-05-05T08:06:58.718Z,36.91
2018-05-05T08:09:26.769Z,36.90
2018-05-05T08:11:54.463Z,36.85
2018-05-05T08:14:22.036Z,37.91
2018-05-05T08:16:49.728Z,37.90
2018-05-05T08:19:17.257Z,37.60
2018-05-05T08:21:44.829Z,37.14
2018-05-05T08:24:12.460Z,36.05
2018-05-05T08:26:40.053Z,36.57
2018-05-05T08:29:07.669Z,36.80
2018-05-05T08:31:35.289Z,36.26
2018-05-05T08:34:02.890Z,36.89
2018-05-05T08:36:30.513Z,37.47
2018-05-05T08:38:58.137Z,38.47
2018-05-05T08:41:25.736Z,38.24
2018-05-05T08:43:53.341Z,38.02
2018-05-05T08:46:20.972Z,38.37
2018-05-05T08:48:48.559Z,38.52
2018-05-05T08:51:16.114Z,38.63
2018-05-05T08:53:43.731Z,38.02
2018-05-05T08:56:11.363Z,37.89
2018-05-05T08:58:38.948Z,37.98
2018-05-05T09:01:06.552Z,37.89
2018-05-05T09:03:34.135Z,38.27
2018-05-05T09:06:01.739Z,38.94
2018-05-05T09:08:29.343Z,37.53
2018-05-05T09:10:56.911Z,36.63
2018-05-05T09:13:24.480Z,35.40
2018-05-05T09:15:52.090Z,35.16
2018-05-05T09:18:19.672Z,35.56
2018-05-05T09:20:47.244Z,37.41
2018-05-05T09:23:14.875Z,37.88
2018-05-05T09:25:42.463Z,37.49
2018-05-05T09:28:10.069Z,36.31
2018-05-05T09:30:37.972Z,35.88
2018-05-05T09:33:05.525Z,36.13
2018-05-05T09:35:33.095Z,35.30
2018-05-05T09:38:00.691Z,36.45
2018-05-05T09:40:28.254Z,37.28
2018-05-05T09:42:55.822Z,37.78
2018-05-05T09:45:23.412Z,38.05
2018-05-05T09:47:50.983Z,38.17
2018-05-05T09:50:18.555Z,38.03
2018-05-05T09:52:46.154Z,36.75
2018-05-05T09:55:13.712Z,36.14
2018-05-05T09:57:41.298Z,35.57
2018-05-05T10:00:08.908Z,35.75
2018-05-05T10:02:36.515Z,37.44
2018-05-05T10:05:04.119Z,38.30
2018-05-05T10:07:31.738Z,37.82
2018-05-05T10:09:59.383Z,36.55
2018-05-05T10:12:26.965Z,36.27
2018-05-05T10:14:54.545Z,36.84
2018-05-05T10:17:22.180Z,35.90
2018-05-05T10:19:49.751Z,36.21
2018-05-05T10:22:17.326Z,36.36
2018-05-05T10:24:44.967Z,37.89
2018-05-05T10:27:12.562Z,36.37
2018-05-05T10:29:40.161Z,36.64
2018-05-05T10:32:07.776Z,37.84
2018-05-05T10:34:35.366Z,38.00
2018-05-05T10:37:02.972Z,37.87
2018-05-05T10:39:30.584Z,37.79
2018-05-05T10:41:58.160Z,37.62
2018-05-05T10:44:25.746Z,38.47
2018-05-05T10:46:53.355Z,40.13
2018-05-05T10:49:20.933Z,39.47
2018-05-05T10:51:48.534Z,38.49
2018-05-05T10:54:16.163Z,38.83
2018-05-05T10:56:43.743Z,39.42
2018-05-05T10:59:11.350Z,40.00
2018-05-05T11:01:38.952Z,38.00
2018-05-05T11:04:06.525Z,38.13
2018-05-05T11:06:34.081Z,38.20
2018-05-05T11:09:01.720Z,38.62
2018-05-05T11:11:29.296Z,39.72
2018-05-05T11:13:56.885Z,40.35
2018-05-05T11:16:24.526Z,40.45
2018-05-05T11:18:52.101Z,39.00
2018-05-05T11:21:19.671Z,37.59
2018-05-05T11:23:47.394Z,36.88
2018-05-05T11:26:14.997Z,37.56
2018-05-05T11:28:42.521Z,38.34
2018-05-05T11:31:10.119Z,38.52
2018-05-05T11:33:37.694Z,39.03
2018-05-05T11:36:05.264Z,38.65
2018-05-05T11:38:32.925Z,39.25
2018-05-05T11:41:00.499Z,37.20
2018-05-05T11:43:28.061Z,38.16
2018-05-05T11:45:55.656Z,38.79
2018-05-05T11:48:23.236Z,39.43
2018-05-05T11:50:50.809Z,38.60
2018-05-05T11:53:18.420Z,36.89
2018-05-05T11:55:46.010Z,37.30
2018-05-05T11:58:13.578Z,37.75
2018-05-05T12:00:41.179Z,37.53
2018-05-05T12:03:08.744Z,37.55
2018-05-05T12:05:36.321Z,37.87
2018-05-05T12:08:03.948Z,38.79
2018-05-05T12:10:31.520Z,38.87
2018-05-05T12:12:59.065Z,39.34
2018-05-05T12:15:26.677Z,39.94
2018-05-05T12:17:54.242Z,40.14
2018-05-05T12:20:21.915Z,39.79
2018-05-05T12:22:49.554Z,39.56
2018-05-05T12:25:17.120Z,39.83
2018-05-05T12:27:44.672Z,39.87
2018-05-05T12:30:12.273Z,39.95
2018-05-05T12:32:39.851Z,38.67
2018-05-05T12:35:07.471Z,38.05
2018-05-05T12:37:35.065Z,37.96
2018-05-05T12:40:02.661Z,38.36
2018-05-05T12:42:30.226Z,38.48
2018-05-05T12:44:57.829Z,37.46
2018-05-05T12:47:25.373Z,36.03
2018-05-05T12:52:26.713Z,33.63
2018-05-05T12:54:54.267Z,33.19
2018-05-05T12:57:21.842Z,32.90
2018-05-05T12:59:49.429Z,32.93
2018-05-05T13:02:16.984Z,32.94
2018-05-05T13:04:44.581Z,32.79
2018-05-05T13:07:12.235Z,32.58
2018-05-05T13:09:39.810Z,32.52
2018-05-05T13:12:07.385Z,32.73
2018-05-05T13:14:34.996Z,32.44
2018-05-05T13:17:02.561Z,32.20
2018-05-05T13:19:30.113Z,31.60
2018-05-05T13:21:57.802Z,31.70
2018-05-05T13:24:25.374Z,31.72
2018-05-05T13:26:52.924Z,31.82
2018-05-05T13:29:20.599Z,32.00
2018-05-05T13:31:48.160Z,32.09
2018-05-05T13:34:15.727Z,32.00
2018-05-05T13:36:43.412Z,31.87
2018-05-05T13:39:10.927Z,31.88
2018-05-05T13:41:38.499Z,31.31
2018-05-05T13:44:06.093Z,31.66
2018-05-05T13:46:33.675Z,31.66
2018-05-05T13:49:01.238Z,31.45
2018-05-05T13:51:28.951Z,31.32
2018-05-05T13:53:56.565Z,31.24
2018-05-05T13:56:24.230Z,31.05
2018-05-05T13:58:51.832Z,31.07
2018-05-05T14:01:19.431Z,31.24
2018-05-05T14:03:46.999Z,31.08
2018-05-05T14:06:14.999Z,31.16
2018-05-05T14:08:42.661Z,31.24
2018-05-05T14:11:10.333Z,31.15
2018-05-05T14:13:37.952Z,31.06
2018-05-05T14:16:08.939Z,31.10
2018-05-05T14:18:41.658Z,30.99
2018-05-05T14:21:13.228Z,31.02
2018-05-05T14:23:45.626Z,30.96
2018-05-05T14:26:13.601Z,30.80
2018-05-05T14:28:41.259Z,30.40
2018-05-05T14:31:08.991Z,30.38
2018-05-05T14:33:36.570Z,30.37
2018-05-05T14:36:04.182Z,30.12
2018-05-05T14:38:31.922Z,29.96
2018-05-05T14:40:59.608Z,30.02
2018-05-05T14:43:27.464Z,30.22
2018-05-05T14:45:55.019Z,30.27
2018-05-05T14:48:22.747Z,30.29
2018-05-05T14:50:50.366Z,30.30
2018-05-05T14:53:18.435Z,30.32
2018-05-05T14:55:46.044Z,30.17
2018-05-05T14:58:13.656Z,30.31
2018-05-05T15:00:41.273Z,30.38
2018-05-05T15:03:08.864Z,30.45
2018-05-05T15:05:36.547Z,30.18
2018-05-05T15:08:04.222Z,30.03
2018-05-05T15:10:31.886Z,30.09
2018-05-05T15:12:59.607Z,30.07
2018-05-05T15:15:27.239Z,30.00
2018-05-05T15:17:54.838Z,29.92
2018-05-05T15:20:22.612Z,29.81
2018-05-05T15:22:50.226Z,29.88
2018-05-05T15:25:17.875Z,29.82
2018-05-05T15:27:45.440Z,29.74
2018-05-05T15:30:13.188Z,29.68
2018-05-05T15:32:40.818Z,29.63
2018-05-05T15:35:08.497Z,29.60
2018-05-05T15:37:36.076Z,29.56
2018-05-05T15:40:03.724Z,29.44
2018-05-05T15:42:31.317Z,29.37
2018-05-05T15:44:58.973Z,29.36
2018-05-05T15:47:26.570Z,29.25
2018-05-05T15:49:54.254Z,29.25
2018-05-05T15:52:21.909Z,29.18
2018-05-05T15:54:49.518Z,29.10
2018-05-05T15:57:17.113Z,29.12
2018-05-05T15:59:44.764Z,29.02
2018-05-05T16:02:12.359Z,29.05
2018-05-05T16:04:39.949Z,28.92
2018-05-05T16:07:07.536Z,28.84
2018-05-05T16:09:35.143Z,28.75
2018-05-05T16:12:02.804Z,28.78
2018-05-05T16:14:30.488Z,28.76
2018-05-05T16:16:58.333Z,28.69
2018-05-05T16:19:25.902Z,28.61
2018-05-05T16:21:53.777Z,28.50
2018-05-05T16:24:21.714Z,28.43
2018-05-05T16:26:49.298Z,28.32
2018-05-05T16:29:16.886Z,28.27
2018-05-05T16:31:44.482Z,28.17
2018-05-05T16:34:12.056Z,28.05
2018-05-05T16:36:39.632Z,27.83
2018-05-05T16:39:07.262Z,27.73
2018-05-05T16:41:34.826Z,27.62
2018-05-05T16:44:02.603Z,27.50
2018-05-05T16:46:30.280Z,27.42
2018-05-05T16:48:57.964Z,27.28
2018-05-05T16:51:25.558Z,27.20
2018-05-05T16:53:53.163Z,27.08
2018-05-05T16:56:20.916Z,26.98
2018-05-05T16:58:48.576Z,26.86
2018-05-05T17:01:16.224Z,26.73
2018-05-05T17:03:43.906Z,26.59
2018-05-05T17:06:11.565Z,26.45
2018-05-05T17:08:39.177Z,26.27
2018-05-05T17:11:06.902Z,26.12
2018-05-05T17:13:34.496Z,25.94
2018-05-05T17:16:02.113Z,25.71
2018-05-05T17:18:29.875Z,25.47
2018-05-05T17:20:57.755Z,25.24
2018-05-05T17:23:25.468Z,25.02
2018-05-05T17:25:53.084Z,24.85
2018-05-05T17:28:20.741Z,24.64
2018-05-05T17:30:48.408Z,24.48
2018-05-05T17:33:16.057Z,24.31
2018-05-05T17:35:43.729Z,24.14
2018-05-05T17:38:11.380Z,23.93
2018-05-05T17:40:38.955Z,23.80
2018-05-05T17:43:06.703Z,23.54
2018-05-05T17:45:34.377Z,23.42
2018-05-05T17:48:02.040Z,23.35
2018-05-05T17:50:29.749Z,23.20
2018-05-05T17:52:57.339Z,23.11
2018-05-05T17:55:25.025Z,22.88
2018-05-05T17:57:52.677Z,22.83
2018-05-05T18:00:20.276Z,22.70
2018-05-05T18:02:48.026Z,22.52
2018-05-05T18:05:15.760Z,22.42
2018-05-05T18:07:43.426Z,22.32
2018-05-05T18:10:11.088Z,22.21
2018-05-05T18:12:38.963Z,22.15
2018-05-05T18:15:06.848Z,22.09
2018-05-05T18:17:34.433Z,22.01
2018-05-05T18:20:02.161Z,21.92
2018-05-05T18:22:29.882Z,21.82
2018-05-05T18:24:57.747Z,21.77
2018-05-05T18:27:25.550Z,21.76
2018-05-05T18:29:53.397Z,21.65
2018-05-05T18:32:21.002Z,21.60
2018-05-05T18:34:48.574Z,21.54
2018-05-05T18:37:16.397Z,21.49
2018-05-05T18:39:43.982Z,21.47
2018-05-05T18:42:11.789Z,21.43
2018-05-05T18:44:39.406Z,21.25
2018-05-05T18:47:06.966Z,21.16
2018-05-05T18:49:34.552Z,21.15
2018-05-05T18:52:02.215Z,21.11
2018-05-05T18:54:29.827Z,20.98
2018-05-05T18:56:57.503Z,20.91
2018-05-05T18:59:25.100Z,20.79
2018-05-05T19:01:52.667Z,20.75
2018-05-05T19:04:20.249Z,20.70
2018-05-05T19:06:47.932Z,20.63
2018-05-05T19:09:15.505Z,20.48
2018-05-05T19:11:43.169Z,20.42
2018-05-05T19:14:10.783Z,20.44
2018-05-05T19:16:38.438Z,20.39
2018-05-05T19:19:06.247Z,20.37
2018-05-05T19:21:33.987Z,20.23
2018-05-05T19:24:01.573Z,20.10
2018-05-05T19:26:29.143Z,19.99
2018-05-05T19:28:57.169Z,19.92
2018-05-05T19:31:24.721Z,19.91
2018-05-05T19:33:52.420Z,19.89
2018-05-05T19:36:20.277Z,19.80
2018-05-05T19:38:48.030Z,19.75
2018-05-05T19:41:15.625Z,19.83
2018-05-05T19:43:43.248Z,19.72
2018-05-05T19:46:10.851Z,19.67
2018-05-05T19:48:38.612Z,19.55
2018-05-05T19:51:06.265Z,19.51
2018-05-05T19:53:33.924Z,19.39
2018-05-05T19:56:01.515Z,19.38
2018-05-05T19:58:29.146Z,19.29
2018-05-05T20:00:56.928Z,19.31
2018-05-05T20:03:24.501Z,19.24
2018-05-05T20:05:52.646Z,19.20
2018-05-05T20:08:20.228Z,19.27
2018-05-05T20:10:47.858Z,19.28
2018-05-05T20:13:15.640Z,19.27
2018-05-05T20:15:43.203Z,19.14
2018-05-05T20:18:10.781Z,19.10
2018-05-05T20:20:38.933Z,19.02
2018-05-05T20:23:06.597Z,18.97
2018-05-05T20:25:34.127Z,18.85
2018-05-05T20:28:01.799Z,18.76
2018-05-05T20:30:29.691Z,18.71
2018-05-05T20:32:57.270Z,18.62
2018-05-05T20:35:24.977Z,18.54
2018-05-05T20:37:52.875Z,18.47
2018-05-05T20:40:20.545Z,18.47
2018-05-05T20:42:48.164Z,18.49
2018-05-05T20:45:15.766Z,18.42
2018-05-05T20:47:43.512Z,18.35
2018-05-05T20:50:11.396Z,18.26
2018-05-05T20:52:39.043Z,18.20
2018-05-05T20:55:06.621Z,18.14
2018-05-05T20:57:34.232Z,18.10
2018-05-05T21:00:01.827Z,18.04
2018-05-05T21:02:29.765Z,18.00
2018-05-05T21:04:57.345Z,17.97
2018-05-05T21:07:25.035Z,17.95
2018-05-05T21:09:52.624Z,17.93
2018-05-05T21:12:20.245Z,17.89
2018-05-05T21:14:47.996Z,18.05
2018-05-05T21:17:15.742Z,18.02
2018-05-05T21:19:43.753Z,17.97
2018-05-05T21:22:11.336Z,17.93
2018-05-05T21:24:39.078Z,17.83
2018-05-05T21:27:06.708Z,17.72
2018-05-05T21:29:34.384Z,17.62
2018-05-05T21:32:01.999Z,17.62
2018-05-05T21:34:29.727Z,17.56
2018-05-05T21:36:57.390Z,17.47
2018-05-05T21:39:24.988Z,17.44
2018-05-05T21:41:52.965Z,17.36
2018-05-05T21:44:20.705Z,17.37
2018-05-05T21:46:48.295Z,17.37
2018-05-05T21:49:16.101Z,17.47
2018-05-05T21:51:43.727Z,17.46
2018-05-05T21:54:11.421Z,17.50
2018-05-05T21:56:38.991Z,17.49
2018-05-05T21:59:06.762Z,17.48
2018-05-05T22:01:34.403Z,17.51
2018-05-05T22:04:02.035Z,17.54
2018-05-05T22:06:29.637Z,17.58
2018-05-05T22:08:57.407Z,17.51
2018-05-05T22:11:25.069Z,17.47
2018-05-05T22:13:53.340Z,17.39
2018-05-05T22:16:21.183Z,17.33
2018-05-05T22:18:48.793Z,17.27
2018-05-05T22:21:16.503Z,17.24
2018-05-05T22:23:44.091Z,17.23
2018-05-05T22:26:11.665Z,17.21
2018-05-05T22:28:39.260Z,17.16
2018-05-05T22:31:06.857Z,17.15
2018-05-05T22:33:34.851Z,17.10
2018-05-05T22:36:02.481Z,16.83
2018-05-05T22:38:30.156Z,16.77
2018-05-05T22:40:57.997Z,16.76
2018-05-05T22:43:25.811Z,16.70
2018-05-05T22:45:54.463Z,16.70
2018-05-05T22:48:22.427Z,16.71
2018-05-05T22:50:50.053Z,16.69
2018-05-05T22:53:17.626Z,16.62
2018-05-05T22:55:45.213Z,16.59
2018-05-05T22:58:12.824Z,16.54
2018-05-05T23:00:40.431Z,16.49
2018-05-05T23:03:08.143Z,16.51
2018-05-05T23:05:36.610Z,16.49
2018-05-05T23:08:04.205Z,16.43
2018-05-05T23:10:31.829Z,16.40
2018-05-05T23:12:59.476Z,16.39
2018-05-05T23:15:27.031Z,16.39
2018-05-05T23:17:54.809Z,16.40
2018-05-05T23:20:22.569Z,16.38
2018-05-05T23:22:50.528Z,16.38
2018-05-05T23:25:18.084Z,16.39
2018-05-05T23:27:45.856Z,16.35
2018-05-05T23:30:13.471Z,16.24
2018-05-05T23:32:41.050Z,16.12
2018-05-05T23:35:08.744Z,15.98
2018-05-05T23:37:36.834Z,15.98
2018-05-05T23:40:04.810Z,16.01
2018-05-05T23:42:32.785Z,15.96
2018-05-05T23:45:00.962Z,15.92
2018-05-05T23:47:28.530Z,15.94
2018-05-05T23:49:56.198Z,15.94
2018-05-05T23:52:24.030Z,15.96
2018-05-05T23:54:51.611Z,15.81
2018-05-05T23:57:19.309Z,15.77
2018-05-05T23:59:47.013Z,15.75
